F/V Moorea — FMIT — position and weather

sailwx.info

Track history (hours):
 
Tides and Currents Weather Stations Pressure Air Temp Water Temp Dewpoint Dewpoint Depression Visibility Wind Speed Wind Dir Waves Ship Positions

F/V Moorea

Last reported at 2017-Aug-19 02:26 UTC. Time now 2017-Aug-20 08:01 UTC.
Position N 47°18' W 002°31'.

Length 18 m.

Type: Fishing. MMSI: 228239900.

Date/timePositionNaut miles runAvg speedWind from/ knotsBaromVisibWave heightAir tempDewpointWater temp
2017-Aug-19 02:26N 47°18' W 002°31'0 0.1
2017-Aug-19 01:59N 47°18' W 002°31'0 0.0
2017-Aug-19 01:30N 47°18' W 002°31'52 2.0
2017-Aug-18 00:10N 46°28' W 002°14'1 8.4
2017-Aug-18 00:00N 46°28' W 002°12'4 8.3
2017-Aug-17 23:30N 46°28' W 002°06'4 8.7
2017-Aug-17 23:00N 46°28' W 001°59'4 8.7
2017-Aug-17 22:30N 46°28' W 001°53'4 8.2
2017-Aug-17 22:00N 46°29' W 001°47'1 1.9
2017-Aug-17 21:30N 46°30' W 001°47'0 0.0
2017-Aug-17 21:00N 46°30' W 001°47'1 1.9
2017-Aug-17 20:30N 46°29' W 001°47'4 9.0
2017-Aug-17 20:00N 46°28' W 001°53'5 9.5
2017-Aug-17 19:30N 46°27' W 002°00'51 2.2
2017-Aug-16 20:27N 46°41' W 003°12'1 3.2
2017-Aug-16 20:00N 46°40' W 003°10'2 3.4
2017-Aug-16 19:18N 46°39' W 003°08'2 3.7
2017-Aug-16 18:52N 46°37' W 003°07'11 1.1
2017-Aug-16 08:38N 46°26' W 003°05'1 3.8
2017-Aug-16 08:21N 46°26' W 003°04'14 3.3
2017-Aug-16 04:14N 46°39' W 003°10'2 0.1
2017-Aug-15 03:44N 46°39' W 003°08'1 3.8
2017-Aug-15 03:26N 46°40' W 003°07'2 5.0
2017-Aug-15 03:00N 46°42' W 003°05'5 9.2
2017-Aug-15 02:30N 46°46' W 003°02'5 9.4
2017-Aug-15 02:00N 46°50' W 002°58'5 9.3
2017-Aug-15 01:30N 46°54' W 002°55'5 9.4
2017-Aug-15 01:00N 46°58' W 002°52'5 9.8
2017-Aug-15 00:30N 47°02' W 002°49'5 9.7
2017-Aug-15 00:00N 47°06' W 002°45'5 9.9
2017-Aug-14 23:30N 47°11' W 002°41'10 8.6
2017-Aug-14 22:19N 47°18' W 002°31'56 3.3
2017-Aug-14 05:08N 46°27' W 003°05'1 0.0
2017-Aug-13 03:16N 46°26' W 003°03'33 1.2
2017-Aug-11 23:37N 46°28' W 002°15'1 9.5
2017-Aug-11 23:30N 46°28' W 002°14'5 9.4
2017-Aug-11 23:00N 46°28' W 002°07'5 9.5
2017-Aug-11 22:30N 46°28' W 001°60'5 9.3
2017-Aug-11 22:00N 46°28' W 001°53'4 8.5
2017-Aug-11 21:31N 46°29' W 001°47'1 1.6
2017-Aug-11 21:00N 46°30' W 001°47'0 0.0
2017-Aug-11 20:30N 46°30' W 001°47'0 0.0
2017-Aug-11 20:00N 46°30' W 001°47'2 4.9
2017-Aug-11 19:30N 46°28' W 001°50'5 9.4
2017-Aug-11 19:00N 46°27' W 001°56'5 9.4
2017-Aug-11 18:26N 46°25' W 002°04'  
2017-Aug-09 03:01N 47°12' W 002°38'1 9.3
2017-Aug-09 02:54N 47°13' W 002°37'  
Track history (hours):
 
Tides and Currents Weather Stations Pressure Air Temp Water Temp Dewpoint Dewpoint Depression Visibility Wind Speed Wind Dir Waves Ship Positions

F/V Moorea

Last reported at 2017-Aug-19 02:26 UTC. Time now 2017-Aug-20 08:01 UTC.
Position N 47°18' W 002°31'.

Length 18 m.

Type: Fishing. MMSI: 228239900.

Date/timePositionNaut miles runAvg speedWind from/ knotsBaromVisibWave heightAir tempDewpointWater temp
2017-Aug-19 02:26N 47°18' W 002°31'0 0.1
2017-Aug-19 01:59N 47°18' W 002°31'0 0.0
2017-Aug-19 01:30N 47°18' W 002°31'52 2.0
2017-Aug-18 00:10N 46°28' W 002°14'1 8.4
2017-Aug-18 00:00N 46°28' W 002°12'4 8.3
2017-Aug-17 23:30N 46°28' W 002°06'4 8.7
2017-Aug-17 23:00N 46°28' W 001°59'4 8.7
2017-Aug-17 22:30N 46°28' W 001°53'4 8.2
2017-Aug-17 22:00N 46°29' W 001°47'1 1.9
2017-Aug-17 21:30N 46°30' W 001°47'0 0.0
2017-Aug-17 21:00N 46°30' W 001°47'1 1.9
2017-Aug-17 20:30N 46°29' W 001°47'4 9.0
2017-Aug-17 20:00N 46°28' W 001°53'5 9.5
2017-Aug-17 19:30N 46°27' W 002°00'51 2.2
2017-Aug-16 20:27N 46°41' W 003°12'1 3.2
2017-Aug-16 20:00N 46°40' W 003°10'2 3.4
2017-Aug-16 19:18N 46°39' W 003°08'2 3.7
2017-Aug-16 18:52N 46°37' W 003°07'11 1.1
2017-Aug-16 08:38N 46°26' W 003°05'1 3.8
2017-Aug-16 08:21N 46°26' W 003°04'14 3.3
2017-Aug-16 04:14N 46°39' W 003°10'2 0.1
2017-Aug-15 03:44N 46°39' W 003°08'1 3.8
2017-Aug-15 03:26N 46°40' W 003°07'2 5.0
2017-Aug-15 03:00N 46°42' W 003°05'5 9.2
2017-Aug-15 02:30N 46°46' W 003°02'5 9.4
2017-Aug-15 02:00N 46°50' W 002°58'5 9.3
2017-Aug-15 01:30N 46°54' W 002°55'5 9.4
2017-Aug-15 01:00N 46°58' W 002°52'5 9.8
2017-Aug-15 00:30N 47°02' W 002°49'5 9.7
2017-Aug-15 00:00N 47°06' W 002°45'5 9.9
2017-Aug-14 23:30N 47°11' W 002°41'10 8.6
2017-Aug-14 22:19N 47°18' W 002°31'56 3.3
2017-Aug-14 05:08N 46°27' W 003°05'1 0.0
2017-Aug-13 03:16N 46°26' W 003°03'33 1.2
2017-Aug-11 23:37N 46°28' W 002°15'1 9.5
2017-Aug-11 23:30N 46°28' W 002°14'5 9.4
2017-Aug-11 23:00N 46°28' W 002°07'5 9.5
2017-Aug-11 22:30N 46°28' W 001°60'5 9.3
2017-Aug-11 22:00N 46°28' W 001°53'4 8.5
2017-Aug-11 21:31N 46°29' W 001°47'1 1.6
2017-Aug-11 21:00N 46°30' W 001°47'0 0.0
2017-Aug-11 20:30N 46°30' W 001°47'0 0.0
2017-Aug-11 20:00N 46°30' W 001°47'2 4.9
2017-Aug-11 19:30N 46°28' W 001°50'5 9.4
2017-Aug-11 19:00N 46°27' W 001°56'5 9.4
2017-Aug-11 18:26N 46°25' W 002°04'  
2017-Aug-09 03:01N 47°12' W 002°38'1 9.3
2017-Aug-09 02:54N 47°13' W 002°37'  

Dump ship's entire track history